createdAt,value
2019-01-21T00:00:48.253Z,43.33
2019-01-21T00:03:17.341Z,41.08
2019-01-21T00:05:46.465Z,36.08
2019-01-21T00:08:15.541Z,41.23
2019-01-21T00:10:46.233Z,38.15
2019-01-21T00:13:15.321Z,37.35
2019-01-21T00:15:45.805Z,42.78
2019-01-21T00:18:14.775Z,43.17
2019-01-21T00:20:45.595Z,44.45
2019-01-21T00:23:14.583Z,48.87
2019-01-21T00:25:45.073Z,43.00
2019-01-21T00:28:14.038Z,36.42
2019-01-21T00:30:44.586Z,43.90
2019-01-21T00:33:13.515Z,39.10
2019-01-21T00:35:42.472Z,39.20
2019-01-21T00:38:11.384Z,36.60
2019-01-21T00:40:40.911Z,37.48
2019-01-21T00:43:09.885Z,40.85
2019-01-21T00:45:38.895Z,41.05
2019-01-21T00:48:09.492Z,36.60
2019-01-21T00:50:38.873Z,32.33
2019-01-21T00:53:07.960Z,39.53
2019-01-21T00:55:36.876Z,46.02
2019-01-21T00:58:06.574Z,37.17
2019-01-21T01:00:36.898Z,36.28
2019-01-21T01:03:06.969Z,34.48
2019-01-21T01:05:37.374Z,38.00
2019-01-21T01:08:07.409Z,30.90
2019-01-21T01:10:37.856Z,35.17
2019-01-21T01:13:06.780Z,32.28
2019-01-21T01:15:36.594Z,37.15
2019-01-21T01:18:05.731Z,42.40
2019-01-21T01:20:34.595Z,34.78
2019-01-21T01:23:03.710Z,44.42
2019-01-21T01:25:32.815Z,36.83
2019-01-21T01:28:02.664Z,35.13
2019-01-21T01:30:31.681Z,32.03
2019-01-21T01:33:00.650Z,31.50
2019-01-21T01:35:30.125Z,35.05
2019-01-21T01:38:00.708Z,37.88
2019-01-21T01:40:29.593Z,38.67
2019-01-21T01:42:59.290Z,34.38
2019-01-21T01:45:28.874Z,38.90
2019-01-21T01:47:59.839Z,34.43
2019-01-21T01:50:30.338Z,36.08
2019-01-21T01:52:59.806Z,34.10
2019-01-21T01:55:29.722Z,34.50
2019-01-21T01:57:59.788Z,33.60
2019-01-21T02:00:29.619Z,37.58
2019-01-21T02:02:58.863Z,33.98
2019-01-21T02:05:28.755Z,42.17
2019-01-21T02:07:57.800Z,35.75
2019-01-21T02:10:26.823Z,39.70
2019-01-21T02:12:58.104Z,37.20
2019-01-21T02:15:27.093Z,38.92
2019-01-21T02:17:56.914Z,35.70
2019-01-21T02:20:26.010Z,39.70
2019-01-21T02:22:58.381Z,40.58
2019-01-21T02:25:30.172Z,33.13
2019-01-21T02:28:01.868Z,45.73
2019-01-21T02:30:33.721Z,35.70
2019-01-21T02:33:06.995Z,34.50
2019-01-21T02:35:38.609Z,38.40
2019-01-21T02:38:10.301Z,35.85
2019-01-21T02:40:41.977Z,33.15
2019-01-21T02:43:15.291Z,40.00
2019-01-21T02:45:46.965Z,38.78
2019-01-21T02:48:18.689Z,39.23
2019-01-21T02:50:48.811Z,39.60
2019-01-21T02:53:20.626Z,35.55
2019-01-21T02:55:52.025Z,38.53
2019-01-21T02:58:23.417Z,38.90
2019-01-21T03:00:57.635Z,41.28
2019-01-21T03:03:30.605Z,35.10
2019-01-21T03:06:02.657Z,36.33
2019-01-21T03:08:35.899Z,34.03
2019-01-21T03:11:07.595Z,36.38
2019-01-21T03:13:39.298Z,39.10
2019-01-21T03:16:10.733Z,34.63
2019-01-21T03:18:40.958Z,34.85
2019-01-21T03:21:11.016Z,38.13
2019-01-21T03:23:42.675Z,35.58
2019-01-21T03:26:12.829Z,38.15
2019-01-21T03:28:44.978Z,40.48
2019-01-21T03:31:18.353Z,39.20
2019-01-21T03:33:47.124Z,43.10
2019-01-21T03:36:18.962Z,35.33
2019-01-21T03:38:52.376Z,42.93
2019-01-21T03:41:25.563Z,45.65
2019-01-21T03:43:58.446Z,41.85
2019-01-21T03:46:28.669Z,47.85
2019-01-21T03:49:00.698Z,48.78
2019-01-21T03:51:32.479Z,42.15
2019-01-21T03:54:04.219Z,40.43
2019-01-21T03:56:36.066Z,41.55
2019-01-21T03:59:06.486Z,42.80
2019-01-21T04:01:38.632Z,42.88
2019-01-21T04:04:10.380Z,41.68
2019-01-21T04:06:42.490Z,43.33
2019-01-21T04:09:15.062Z,43.23
2019-01-21T04:11:47.299Z,46.98
2019-01-21T04:14:19.611Z,37.10
2019-01-21T04:16:49.899Z,52.00
2019-01-21T04:19:21.999Z,47.08
2019-01-21T04:21:52.306Z,52.15
2019-01-21T04:24:23.739Z,44.10
2019-01-21T04:26:55.554Z,49.65
2019-01-21T04:29:31.272Z,39.67
2019-01-21T04:32:03.056Z,44.50
2019-01-21T04:34:36.616Z,40.90
2019-01-21T04:37:08.446Z,44.53
2019-01-21T04:39:40.226Z,41.92
2019-01-21T04:42:12.061Z,41.37
2019-01-21T04:44:43.901Z,41.20
2019-01-21T04:47:15.554Z,42.35
2019-01-21T04:49:49.158Z,44.00
2019-01-21T04:52:21.708Z,39.00
2019-01-21T04:54:56.460Z,44.75
2019-01-21T04:57:31.377Z,40.95
2019-01-21T05:00:12.756Z,41.10
2019-01-21T05:02:44.055Z,39.95
2019-01-21T05:05:15.815Z,36.75
2019-01-21T05:07:49.906Z,35.05
2019-01-21T05:10:22.539Z,40.10
2019-01-21T05:12:55.646Z,35.03
2019-01-21T05:15:27.342Z,36.00
2019-01-21T05:17:59.014Z,40.35
2019-01-21T05:20:32.477Z,38.42
2019-01-21T05:23:04.458Z,37.50
2019-01-21T05:25:37.489Z,40.88
2019-01-21T05:28:09.197Z,39.30
2019-01-21T05:30:39.389Z,43.92
2019-01-21T05:33:12.517Z,45.75
2019-01-21T05:35:45.635Z,42.33
2019-01-21T05:38:17.312Z,37.23
2019-01-21T05:40:48.695Z,42.70
2019-01-21T05:43:21.494Z,40.52
2019-01-21T05:45:54.408Z,42.15
2019-01-21T05:48:26.095Z,38.90
2019-01-21T05:50:57.861Z,37.85
2019-01-21T05:53:29.772Z,38.55
2019-01-21T05:56:02.982Z,35.70
2019-01-21T05:58:34.943Z,44.05
2019-01-21T06:01:06.149Z,36.30
2019-01-21T06:03:37.841Z,35.30
2019-01-21T06:06:11.661Z,37.30
2019-01-21T06:08:41.705Z,37.20
2019-01-21T06:11:14.677Z,36.45
2019-01-21T06:13:47.382Z,38.08
2019-01-21T06:16:20.781Z,41.73
2019-01-21T06:18:57.199Z,40.25
2019-01-21T06:21:22.788Z,42.15
2019-01-21T06:23:56.019Z,40.63
2019-01-21T06:26:27.774Z,40.75
2019-01-21T06:28:58.833Z,37.20
2019-01-21T06:31:29.575Z,39.92
2019-01-21T06:34:01.302Z,42.17
2019-01-21T06:36:33.020Z,44.63
2019-01-21T06:39:01.560Z,38.05
2019-01-21T06:41:33.299Z,35.10
2019-01-21T06:44:04.937Z,36.50
2019-01-21T06:46:36.757Z,33.05
2019-01-21T06:49:10.487Z,38.48
2019-01-21T06:51:40.803Z,40.10
2019-01-21T06:54:10.915Z,37.58
2019-01-21T06:56:47.322Z,36.08
2019-01-21T06:59:14.943Z,36.42
2019-01-21T07:01:47.601Z,35.98
2019-01-21T07:04:21.245Z,41.40
2019-01-21T07:06:52.963Z,44.10
2019-01-21T07:09:25.426Z,41.95
2019-01-21T07:11:57.136Z,40.12
2019-01-21T07:14:28.222Z,42.43
2019-01-21T07:16:59.932Z,42.60
2019-01-21T07:19:29.871Z,34.50
2019-01-21T07:22:01.569Z,30.37
2019-01-21T07:24:35.031Z,37.70
2019-01-21T07:27:07.680Z,42.65
2019-01-21T07:29:38.526Z,37.13
2019-01-21T07:32:10.262Z,34.98
2019-01-21T07:34:41.890Z,37.27
2019-01-21T07:37:16.275Z,35.92
2019-01-21T07:39:51.306Z,35.50
2019-01-21T07:42:23.167Z,37.13
2019-01-21T07:44:54.875Z,51.60
2019-01-21T07:47:27.946Z,48.55
2019-01-21T07:49:59.633Z,44.95
2019-01-21T07:52:32.337Z,50.60
2019-01-21T07:55:04.123Z,61.25
2019-01-21T07:57:35.788Z,57.62
2019-01-21T08:00:10.030Z,62.10
2019-01-21T08:02:38.440Z,67.37
2019-01-21T08:05:08.706Z,76.70
2019-01-21T08:07:40.517Z,66.23
2019-01-21T08:10:13.854Z,65.03
2019-01-21T08:12:45.497Z,59.23
2019-01-21T08:15:17.271Z,54.20
2019-01-21T08:17:48.957Z,64.90
2019-01-21T08:20:21.947Z,63.93
2019-01-21T08:22:53.654Z,63.73
2019-01-21T08:25:23.748Z,61.30
2019-01-21T08:27:55.466Z,51.67
2019-01-21T08:30:27.542Z,59.13
2019-01-21T08:32:58.880Z,44.57
2019-01-21T08:35:30.623Z,39.80
2019-01-21T08:38:02.397Z,33.57
2019-01-21T08:40:34.079Z,35.40
2019-01-21T08:43:06.372Z,34.00
2019-01-21T08:45:38.997Z,53.73
2019-01-21T08:48:10.725Z,41.90
2019-01-21T08:50:42.411Z,34.40
2019-01-21T08:53:14.119Z,38.33
2019-01-21T08:55:45.823Z,35.00
2019-01-21T08:58:17.010Z,37.43
2019-01-21T09:00:50.823Z,37.03
2019-01-21T09:03:22.570Z,41.67
2019-01-21T09:05:54.188Z,39.10
2019-01-21T09:08:25.874Z,42.60
2019-01-21T09:10:57.628Z,39.53
2019-01-21T09:13:31.337Z,39.30
2019-01-21T09:16:03.100Z,37.70
2019-01-21T09:18:34.716Z,30.80
2019-01-21T09:21:04.855Z,27.93
2019-01-21T09:23:36.530Z,29.10
2019-01-21T09:26:08.219Z,32.33
2019-01-21T09:28:39.890Z,29.87
2019-01-21T09:31:10.059Z,26.33
2019-01-21T09:33:41.782Z,37.33
2019-01-21T09:36:13.371Z,27.87
2019-01-21T09:38:43.549Z,32.87
2019-01-21T09:41:16.573Z,34.07
2019-01-21T09:43:48.352Z,31.47
2019-01-21T09:46:21.225Z,28.43
2019-01-21T09:51:34.505Z,27.30
2019-01-21T09:54:05.487Z,29.23
2019-01-21T09:56:34.586Z,31.33
2019-01-21T09:59:03.485Z,24.60
2019-01-21T10:01:34.864Z,29.13
2019-01-21T10:04:05.260Z,28.23
2019-01-21T10:06:36.876Z,24.43
2019-01-21T10:09:08.560Z,27.67
2019-01-21T10:11:39.786Z,28.77
2019-01-21T10:14:12.203Z,28.60
2019-01-21T10:16:44.025Z,31.00
2019-01-21T10:19:15.705Z,25.00
2019-01-21T10:21:46.216Z,31.87
2019-01-21T10:24:17.919Z,31.03
2019-01-21T10:26:49.857Z,29.00
2019-01-21T10:29:21.585Z,26.57
2019-01-21T10:31:59.347Z,30.07
2019-01-21T10:34:26.103Z,20.77
2019-01-21T10:36:56.187Z,24.33
2019-01-21T10:39:27.383Z,20.10
2019-01-21T10:41:59.076Z,19.47
2019-01-21T10:44:30.754Z,25.33
2019-01-21T10:47:02.408Z,22.17
2019-01-21T10:49:34.152Z,25.63
2019-01-21T10:52:05.803Z,23.83
2019-01-21T10:54:37.515Z,24.00
2019-01-21T10:57:10.625Z,25.93
2019-01-21T10:59:42.412Z,29.93
2019-01-21T11:02:14.069Z,30.90
2019-01-21T11:04:44.181Z,25.17
2019-01-21T11:07:13.778Z,28.13
2019-01-21T11:09:45.395Z,36.77
2019-01-21T11:12:17.100Z,30.30
2019-01-21T11:14:47.165Z,36.83
2019-01-21T11:17:18.312Z,33.20
2019-01-21T11:19:49.995Z,31.40
2019-01-21T11:22:21.684Z,31.17
2019-01-21T11:24:53.379Z,29.40
2019-01-21T11:27:25.231Z,34.00
2019-01-21T11:29:58.258Z,27.00
2019-01-21T11:32:30.063Z,28.93
2019-01-21T11:35:00.495Z,29.87
2019-01-21T11:37:32.280Z,31.87
2019-01-21T11:40:03.956Z,31.00
2019-01-21T11:42:35.713Z,38.30
2019-01-21T11:45:07.413Z,31.67
2019-01-21T11:47:39.157Z,39.00
2019-01-21T11:50:10.993Z,37.07
2019-01-21T11:52:43.983Z,37.87
2019-01-21T11:55:15.770Z,35.87
2019-01-21T11:57:47.706Z,36.70
2019-01-21T12:00:20.346Z,35.10
2019-01-21T12:02:52.042Z,27.53
2019-01-21T12:05:25.156Z,32.80
2019-01-21T12:07:58.536Z,34.53
2019-01-21T12:10:28.665Z,30.50
2019-01-21T12:13:00.388Z,33.07
2019-01-21T12:15:31.983Z,35.80
2019-01-21T12:18:02.134Z,34.90
2019-01-21T12:20:33.917Z,49.57
2019-01-21T12:23:05.648Z,29.53
2019-01-21T12:25:37.513Z,34.43
2019-01-21T12:28:08.534Z,34.10
2019-01-21T12:30:40.337Z,35.70
2019-01-21T12:33:12.069Z,35.07
2019-01-21T12:35:43.813Z,38.27
2019-01-21T12:38:15.529Z,39.30
2019-01-21T12:40:47.405Z,41.33
2019-01-21T12:43:19.147Z,34.27
2019-01-21T12:45:50.817Z,31.43
2019-01-21T12:48:23.838Z,32.93
2019-01-21T12:50:55.612Z,33.20
2019-01-21T12:53:26.864Z,34.73
2019-01-21T12:55:58.576Z,38.03
2019-01-21T12:58:30.195Z,39.13
2019-01-21T13:01:01.394Z,35.17
2019-01-21T13:03:33.130Z,36.77
2019-01-21T13:06:04.354Z,33.57
2019-01-21T13:08:35.990Z,35.27
2019-01-21T13:11:09.042Z,38.17
2019-01-21T13:13:40.169Z,32.20
2019-01-21T13:16:11.839Z,35.63
2019-01-21T13:18:43.449Z,35.67
2019-01-21T13:21:13.683Z,35.87
2019-01-21T13:23:45.365Z,38.30
2019-01-21T13:26:17.088Z,36.10
2019-01-21T13:28:48.793Z,42.43
2019-01-21T13:31:24.745Z,43.73
2019-01-21T13:33:55.953Z,42.43
2019-01-21T13:36:27.591Z,38.90
2019-01-21T13:39:02.173Z,46.63
2019-01-21T13:41:33.842Z,45.70
2019-01-21T13:44:03.978Z,51.00
2019-01-21T13:46:35.668Z,43.13
2019-01-21T13:49:07.322Z,36.10
2019-01-21T13:51:39.805Z,39.43
2019-01-21T13:54:11.537Z,35.70
2019-01-21T13:56:44.659Z,32.70
2019-01-21T13:59:16.212Z,38.80
2019-01-21T14:01:47.969Z,40.83
2019-01-21T14:04:17.758Z,32.60
2019-01-21T14:06:49.491Z,33.30
2019-01-21T14:09:20.709Z,43.30
2019-01-21T14:11:52.424Z,41.50
2019-01-21T14:14:25.204Z,39.10
2019-01-21T14:16:57.142Z,36.13
2019-01-21T14:19:30.338Z,37.40
2019-01-21T14:22:01.599Z,34.33
2019-01-21T14:24:33.391Z,40.43
2019-01-21T14:27:03.575Z,45.07
2019-01-21T14:29:35.272Z,41.37
2019-01-21T14:32:07.274Z,32.43
2019-01-21T14:34:38.961Z,39.43
2019-01-21T14:37:13.985Z,35.70
2019-01-21T14:39:45.674Z,34.20
2019-01-21T14:42:17.403Z,34.77
2019-01-21T14:44:51.285Z,38.80
2019-01-21T14:47:23.776Z,37.83
2019-01-21T14:49:56.542Z,34.87
2019-01-21T14:52:29.057Z,38.93
2019-01-21T14:54:59.131Z,42.57
2019-01-21T14:57:32.334Z,36.43
2019-01-21T15:00:05.641Z,35.00
2019-01-21T15:02:37.334Z,38.30
2019-01-21T15:05:10.104Z,34.47
2019-01-21T15:07:42.168Z,35.33
2019-01-21T15:10:13.237Z,46.23
2019-01-21T15:12:45.149Z,38.03
2019-01-21T15:15:17.749Z,33.93
2019-01-21T15:17:49.479Z,37.23
2019-01-21T15:20:21.373Z,31.07
2019-01-21T15:22:53.565Z,30.80
2019-01-21T15:25:25.276Z,34.83
2019-01-21T15:27:56.405Z,33.60
2019-01-21T15:30:31.436Z,37.17
2019-01-21T15:33:04.789Z,32.00
2019-01-21T15:35:36.460Z,31.90
2019-01-21T15:38:10.782Z,35.93
2019-01-21T15:40:42.007Z,34.90
2019-01-21T15:43:13.826Z,35.17
2019-01-21T15:45:50.150Z,37.10
2019-01-21T15:48:21.128Z,30.60
2019-01-21T15:50:52.849Z,33.77
2019-01-21T15:53:24.573Z,33.97
2019-01-21T15:55:56.258Z,29.70
2019-01-21T15:58:26.374Z,35.07
2019-01-21T16:00:58.129Z,36.37
2019-01-21T16:03:29.887Z,35.20
2019-01-21T16:06:01.582Z,37.67
2019-01-21T16:08:33.317Z,49.27
2019-01-21T16:11:05.176Z,47.40
2019-01-21T16:13:36.915Z,57.00
2019-01-21T16:16:08.826Z,64.10
2019-01-21T16:18:40.075Z,90.57
2019-01-21T16:21:12.821Z,81.47
2019-01-21T16:23:50.539Z,59.20
2019-01-21T16:26:20.238Z,51.10
2019-01-21T16:28:52.999Z,50.17
2019-01-21T16:31:24.712Z,43.03
2019-01-21T16:33:56.389Z,48.60
2019-01-21T16:36:28.107Z,43.97
2019-01-21T16:39:00.009Z,55.03
2019-01-21T16:41:31.634Z,51.97
2019-01-21T16:44:00.944Z,51.07
2019-01-21T16:46:29.806Z,48.97
2019-01-21T16:49:04.332Z,51.40
2019-01-21T16:51:33.305Z,59.27
2019-01-21T16:54:03.693Z,44.27
2019-01-21T16:56:32.607Z,52.33
2019-01-21T16:59:01.861Z,48.70
2019-01-21T17:01:31.143Z,50.80
2019-01-21T17:04:00.061Z,48.87
2019-01-21T17:06:29.193Z,47.20
2019-01-21T17:08:58.864Z,45.87
2019-01-21T17:11:27.898Z,48.70
2019-01-21T17:13:57.081Z,55.77
2019-01-21T17:16:32.897Z,50.37
2019-01-21T17:19:03.530Z,55.27
2019-01-21T17:21:32.427Z,57.53
2019-01-21T17:24:05.342Z,47.17
2019-01-21T17:26:34.424Z,46.50
2019-01-21T17:29:03.375Z,44.60
2019-01-21T17:31:34.477Z,50.37
2019-01-21T17:34:04.469Z,54.23
2019-01-21T17:36:33.789Z,50.80
2019-01-21T17:39:02.726Z,47.57
2019-01-21T17:41:33.270Z,57.80
2019-01-21T17:44:02.155Z,72.90
2019-01-21T17:46:31.048Z,62.97
2019-01-21T17:49:00.208Z,52.47
2019-01-21T17:51:33.760Z,52.37
2019-01-21T17:53:59.712Z,52.30
2019-01-21T17:56:28.681Z,51.63
2019-01-21T17:58:58.511Z,53.20
2019-01-21T18:01:27.313Z,59.23
2019-01-21T18:03:56.405Z,50.60
2019-01-21T18:06:25.862Z,61.27
2019-01-21T18:08:54.756Z,60.93
2019-01-21T18:11:23.798Z,53.67
2019-01-21T18:13:52.753Z,52.13
2019-01-21T18:16:21.770Z,53.67
2019-01-21T18:18:51.224Z,54.73
2019-01-21T18:21:22.440Z,65.17
2019-01-21T18:23:51.638Z,56.50
2019-01-21T18:26:20.727Z,54.13
2019-01-21T18:28:49.665Z,56.60
2019-01-21T18:31:22.014Z,56.33
2019-01-21T18:33:50.928Z,56.13
2019-01-21T18:36:21.268Z,62.30
2019-01-21T18:38:50.588Z,63.60
2019-01-21T18:41:19.762Z,61.23
2019-01-21T18:43:48.811Z,69.63
2019-01-21T18:46:17.890Z,53.33
2019-01-21T18:48:46.800Z,84.13
2019-01-21T18:51:15.904Z,50.67
2019-01-21T18:53:45.140Z,53.30
2019-01-21T18:56:14.833Z,55.67
2019-01-21T18:58:44.034Z,57.43
2019-01-21T19:01:12.972Z,59.27
2019-01-21T19:03:41.936Z,57.33
2019-01-21T19:06:10.908Z,61.87
2019-01-21T19:08:39.866Z,60.90
2019-01-21T19:11:09.882Z,51.37
2019-01-21T19:13:38.836Z,56.50
2019-01-21T19:16:08.595Z,60.93
2019-01-21T19:18:37.600Z,55.50
2019-01-21T19:21:06.626Z,58.60
2019-01-21T19:23:35.599Z,51.00
2019-01-21T19:26:04.693Z,52.17
2019-01-21T19:28:33.788Z,53.60
2019-01-21T19:31:02.924Z,62.13
2019-01-21T19:33:32.091Z,56.67
2019-01-21T19:36:01.710Z,52.00
2019-01-21T19:38:30.548Z,55.27
2019-01-21T19:40:59.513Z,74.97
2019-01-21T19:43:28.641Z,65.03
2019-01-21T19:45:57.629Z,66.97
2019-01-21T19:48:26.514Z,54.43
2019-01-21T19:50:56.152Z,78.97
2019-01-21T19:53:25.875Z,63.70
2019-01-21T19:55:54.955Z,56.53
2019-01-21T19:58:23.932Z,57.50
2019-01-21T20:00:52.975Z,59.90
2019-01-21T20:03:22.268Z,58.43
2019-01-21T20:05:53.266Z,59.80
2019-01-21T20:08:22.421Z,46.43
2019-01-21T20:10:51.554Z,49.67
2019-01-21T20:13:20.720Z,66.40
2019-01-21T20:15:50.282Z,65.17
2019-01-21T20:18:19.375Z,58.13
2019-01-21T20:20:48.490Z,58.27
2019-01-21T20:23:17.746Z,56.57
2019-01-21T20:25:47.989Z,56.13
2019-01-21T20:28:19.414Z,57.97
2019-01-21T20:30:48.755Z,52.03
2019-01-21T20:33:18.643Z,58.25
2019-01-21T20:35:48.382Z,55.40
2019-01-21T20:38:17.702Z,50.80
2019-01-21T20:40:48.726Z,52.45
2019-01-21T20:43:23.151Z,52.17
2019-01-21T20:45:53.775Z,53.02
2019-01-21T20:48:23.550Z,56.18
2019-01-21T20:50:54.897Z,52.48
2019-01-21T20:53:23.960Z,53.80
2019-01-21T20:55:53.215Z,53.23
2019-01-21T20:58:22.506Z,53.30
2019-01-21T21:00:52.795Z,73.25
2019-01-21T21:03:21.972Z,68.97
2019-01-21T21:05:50.937Z,76.27
2019-01-21T21:08:19.916Z,65.15
2019-01-21T21:10:48.724Z,58.08
2019-01-21T21:13:17.575Z,62.78
2019-01-21T21:15:46.516Z,54.80
2019-01-21T21:18:16.009Z,61.03
2019-01-21T21:20:45.868Z,62.87
2019-01-21T21:23:15.028Z,57.83
2019-01-21T21:25:43.999Z,58.87
2019-01-21T21:28:12.983Z,57.67
2019-01-21T21:30:42.226Z,58.83
2019-01-21T21:33:12.735Z,60.20
2019-01-21T21:35:41.974Z,70.70
2019-01-21T21:38:10.944Z,56.80
2019-01-21T21:40:39.991Z,51.53
2019-01-21T21:43:08.851Z,56.77
2019-01-21T21:45:38.627Z,53.20
2019-01-21T21:48:07.627Z,50.40
2019-01-21T21:50:38.131Z,59.20
2019-01-21T21:53:08.524Z,65.03
2019-01-21T21:55:39.238Z,61.90
2019-01-21T21:58:08.609Z,59.40
2019-01-21T22:00:37.822Z,61.18
2019-01-21T22:03:06.907Z,59.83
2019-01-21T22:05:35.894Z,59.80
2019-01-21T22:08:05.694Z,60.25
2019-01-21T22:10:35.483Z,54.65
2019-01-21T22:13:04.473Z,58.55
2019-01-21T22:15:33.423Z,57.45
2019-01-21T22:18:02.557Z,61.37
2019-01-21T22:20:31.379Z,58.80
2019-01-21T22:23:00.753Z,59.55
2019-01-21T22:25:29.741Z,56.58
2019-01-21T22:27:58.689Z,64.82
2019-01-21T22:30:27.963Z,58.30
2019-01-21T22:32:57.275Z,60.85
2019-01-21T22:35:26.410Z,67.30
2019-01-21T22:37:55.370Z,66.55
2019-01-21T22:40:25.381Z,63.17
2019-01-21T22:42:54.364Z,61.50
2019-01-21T22:45:23.739Z,65.83
2019-01-21T22:47:52.628Z,61.02
2019-01-21T22:50:22.174Z,56.63
2019-01-21T22:52:51.279Z,65.00
2019-01-21T22:55:20.305Z,56.42
2019-01-21T22:57:50.518Z,63.73
2019-01-21T23:00:22.511Z,58.92
2019-01-21T23:02:51.763Z,65.57
2019-01-21T23:05:20.698Z,61.73
2019-01-21T23:07:49.592Z,64.40
2019-01-21T23:10:19.319Z,60.67
2019-01-21T23:12:49.506Z,64.40
2019-01-21T23:15:18.871Z,64.45
2019-01-21T23:17:47.910Z,62.73
2019-01-21T23:20:16.829Z,59.98
2019-01-21T23:22:49.341Z,67.15
2019-01-21T23:25:17.076Z,62.67
2019-01-21T23:27:47.479Z,67.73
2019-01-21T23:30:19.897Z,58.23
2019-01-21T23:32:48.849Z,61.58
2019-01-21T23:35:18.179Z,64.53
2019-01-21T23:37:47.162Z,56.90
2019-01-21T23:40:17.465Z,65.28
2019-01-21T23:42:46.386Z,60.05
2019-01-21T23:45:16.827Z,59.08
2019-01-21T23:47:46.937Z,63.90
2019-01-21T23:50:17.944Z,64.40
2019-01-21T23:52:47.037Z,53.52
2019-01-21T23:55:16.436Z,55.17
2019-01-21T23:57:46.060Z,62.53
